Time;durP1;ratioP1;P1;durP2;ratioP2;P2;SDS_P1;SDS_P2;PMS_P1;PMS_P2;Temp;Humidity;BMP_temperature;BMP_pressure;BME280_temperature;BME280_humidity;BME280_pressure;Samples;Min_cycle;Max_cycle;Signal;HPM_P1;HPM_P2
2021/12/30 00:01:38;;;;;;;3.05;1.20;;;10.90;85.50;;;;;;4991623;28;20034;-77
2021/12/30 00:04:04;;;;;;;2.90;1.30;;;10.90;86.00;;;;;;4989179;28;20036;-76
2021/12/30 00:06:38;;;;;;;3.47;1.58;;;10.90;85.80;;;;;;4994695;28;20029;-77
2021/12/30 00:09:04;;;;;;;3.45;1.50;;;10.90;85.90;;;;;;4990177;28;20486;-77
2021/12/30 00:11:30;;;;;;;5.00;1.42;;;10.90;85.60;;;;;;4995587;28;20494;-77
2021/12/30 00:13:57;;;;;;;2.67;1.23;;;10.90;86.30;;;;;;4994855;28;20097;-77
2021/12/30 00:16:22;;;;;;;3.88;1.73;;;10.90;86.00;;;;;;4992521;28;20112;-77
2021/12/30 00:18:49;;;;;;;1.80;0.90;;;10.90;85.90;;;;;;4993752;28;20026;-77
2021/12/30 00:21:15;;;;;;;2.45;0.90;;;10.90;86.50;;;;;;4994560;28;20034;-77
2021/12/30 00:23:42;;;;;;;4.13;1.70;;;10.90;86.70;;;;;;4993049;28;20102;-77
2021/12/30 00:26:08;;;;;;;2.70;1.38;;;10.90;87.60;;;;;;4994332;28;20049;-77
2021/12/30 00:28:34;;;;;;;6.32;2.10;;;10.90;87.90;;;;;;4993283;28;20419;-76
2021/12/30 00:31:00;;;;;;;8.25;3.75;;;10.90;87.80;;;;;;4994381;28;20033;-76
2021/12/30 00:33:27;;;;;;;4.38;1.65;;;10.90;88.30;;;;;;4994312;28;20332;-76
2021/12/30 00:35:53;;;;;;;3.00;1.30;;;10.90;88.40;;;;;;4984984;28;20322;-77
2021/12/30 00:38:19;;;;;;;3.10;1.35;;;10.90;89.00;;;;;;4992180;28;20033;-76
2021/12/30 00:40:45;;;;;;;2.67;1.00;;;10.90;88.60;;;;;;4996504;28;20038;-77
2021/12/30 00:43:11;;;;;;;4.72;2.22;;;10.90;88.50;;;;;;4998176;28;20172;-77
2021/12/30 00:45:40;;;;;;;3.35;1.45;;;10.90;89.30;;;;;;4994442;28;20197;-77
2021/12/30 00:48:07;;;;;;;4.90;2.10;;;10.90;89.20;;;;;;4992468;28;20034;-77
2021/12/30 00:50:35;;;;;;;3.55;1.40;;;10.90;89.30;;;;;;4994838;28;20027;-76
2021/12/30 00:53:02;;;;;;;4.32;2.00;;;10.90;89.90;;;;;;4991033;28;20054;-76
2021/12/30 00:55:28;;;;;;;2.97;1.00;;;10.80;90.50;;;;;;4992255;28;20116;-76
2021/12/30 00:57:54;;;;;;;1.90;0.70;;;10.80;89.90;;;;;;4993732;28;20026;-76
2021/12/30 01:00:21;;;;;;;2.75;1.25;;;10.80;90.80;;;;;;4991651;28;20037;-76
2021/12/30 01:02:47;;;;;;;2.33;1.00;;;10.80;90.90;;;;;;5007075;28;20116;-78
2021/12/30 01:05:14;;;;;;;1.70;0.85;;;10.80;90.80;;;;;;4993547;28;20535;-78
2021/12/30 01:07:39;;;;;;;3.78;1.10;;;10.80;90.60;;;;;;4992825;28;20416;-77
2021/12/30 01:10:09;;;;;;;3.45;1.30;;;10.80;90.90;;;;;;4991730;28;20041;-77
2021/12/30 01:12:35;;;;;;;2.95;0.90;;;10.80;89.90;;;;;;4992296;28;20045;-77
2021/12/30 01:15:08;;;;;;;2.92;1.33;;;10.80;89.90;;;;;;4993645;28;20068;-76
2021/12/30 01:17:45;;;;;;;3.53;0.97;;;10.80;90.10;;;;;;4993242;28;20432;-76
2021/12/30 01:20:14;;;;;;;3.15;1.13;;;10.80;89.30;;;;;;4993146;28;20701;-76
2021/12/30 01:22:41;;;;;;;1.75;0.90;;;10.80;89.40;;;;;;5006736;28;20034;-77
2021/12/30 01:25:08;;;;;;;4.15;1.50;;;10.80;89.20;;;;;;4989745;28;20022;-76
2021/12/30 01:27:40;;;;;;;4.25;1.10;;;10.80;89.10;;;;;;5007687;28;20106;-76
2021/12/30 01:30:09;;;;;;;2.10;0.90;;;10.80;88.90;;;;;;4987937;28;20023;-76
2021/12/30 01:32:35;;;;;;;3.65;1.20;;;10.80;89.40;;;;;;4990709;28;20040;-76
2021/12/30 01:35:03;;;;;;;3.28;0.90;;;10.70;89.50;;;;;;4991779;28;20322;-76
2021/12/30 01:37:29;;;;;;;5.13;1.85;;;10.70;88.80;;;;;;4990728;28;20149;-76
2021/12/30 01:39:55;;;;;;;5.60;2.30;;;10.70;89.30;;;;;;4992308;28;20414;-75
2021/12/30 01:42:20;;;;;;;3.53;1.20;;;10.60;89.70;;;;;;4987935;28;20027;-78
2021/12/30 01:44:46;;;;;;;2.30;1.23;;;10.60;89.50;;;;;;4993112;28;20037;-77
2021/12/30 01:47:12;;;;;;;3.15;1.42;;;10.50;89.80;;;;;;4993827;28;20047;-77
2021/12/30 01:49:38;;;;;;;2.13;1.00;;;10.50;90.10;;;;;;4992517;28;20431;-76
2021/12/30 01:52:04;;;;;;;2.88;0.70;;;10.50;90.40;;;;;;4991768;28;20034;-76
2021/12/30 01:54:30;;;;;;;4.85;1.90;;;10.40;89.80;;;;;;4989953;28;20104;-76
2021/12/30 01:57:05;;;;;;;3.10;1.40;;;10.40;90.20;;;;;;4991505;28;20034;-76
2021/12/30 01:59:31;;;;;;;2.28;0.80;;;10.40;90.20;;;;;;4992203;28;20034;-77
2021/12/30 02:01:57;;;;;;;2.30;0.82;;;10.40;90.00;;;;;;4992609;28;20105;-76
2021/12/30 02:04:30;;;;;;;2.20;0.90;;;10.50;90.50;;;;;;4991368;28;20106;-76
2021/12/30 02:06:57;;;;;;;3.03;1.25;;;10.60;91.40;;;;;;4993782;28;20431;-77
2021/12/30 02:09:23;;;;;;;2.75;1.10;;;10.60;92.40;;;;;;4980169;28;20022;-75
2021/12/30 02:11:50;;;;;;;2.15;0.82;;;10.60;92.80;;;;;;4992581;28;20026;-77
2021/12/30 02:14:16;;;;;;;2.15;0.90;;;10.70;92.80;;;;;;5018242;28;20388;-77
2021/12/30 02:16:44;;;;;;;2.95;0.70;;;10.70;93.80;;;;;;4995977;28;20041;-76
2021/12/30 02:19:09;;;;;;;2.92;1.30;;;10.70;94.00;;;;;;4997645;28;20081;-76
2021/12/30 02:21:36;;;;;;;3.75;0.90;;;10.70;94.10;;;;;;4997377;28;20050;-76
2021/12/30 02:24:02;;;;;;;1.27;0.80;;;10.70;94.00;;;;;;4994660;28;20061;-77
2021/12/30 02:26:28;;;;;;;3.85;0.90;;;10.70;94.70;;;;;;4996687;28;20114;-76
2021/12/30 02:28:54;;;;;;;2.03;0.90;;;10.70;94.90;;;;;;4996822;28;20030;-77
2021/12/30 02:31:25;;;;;;;1.88;0.70;;;10.70;95.00;;;;;;4992335;28;20039;-76
2021/12/30 02:33:51;;;;;;;1.25;0.70;;;10.70;95.00;;;;;;5012418;28;20026;-75
2021/12/30 02:36:27;;;;;;;1.60;0.75;;;10.70;94.90;;;;;;4999049;28;20044;-76
2021/12/30 02:38:53;;;;;;;1.92;0.80;;;10.60;95.40;;;;;;5007990;28;20378;-76
2021/12/30 02:41:19;;;;;;;1.30;0.70;;;10.60;94.60;;;;;;4996437;28;20113;-77
2021/12/30 02:43:50;;;;;;;2.70;0.85;;;10.60;94.70;;;;;;4996931;28;20019;-77
2021/12/30 02:46:21;;;;;;;2.30;1.00;;;10.60;94.60;;;;;;4997257;28;20029;-76
2021/12/30 02:48:47;;;;;;;1.65;0.60;;;10.60;94.70;;;;;;4995294;28;20027;-76
2021/12/30 02:51:13;;;;;;;2.17;0.77;;;10.60;94.80;;;;;;4995070;28;20029;-75
2021/12/30 02:53:39;;;;;;;2.33;1.02;;;10.60;94.30;;;;;;4992897;28;20023;-76
2021/12/30 02:56:06;;;;;;;1.17;0.68;;;10.70;94.70;;;;;;4993925;28;20030;-75
2021/12/30 02:58:32;;;;;;;1.83;0.70;;;10.70;95.50;;;;;;4997525;28;20061;-77
2021/12/30 03:01:27;;;;;;;2.13;1.05;;;10.80;96.00;;;;;;4992063;28;20038;-76
2021/12/30 03:03:53;;;;;;;;;;;10.80;96.60;;;;;;4994157;28;20033;-76
2021/12/30 03:06:18;;;;;;;1.08;0.70;;;10.80;96.30;;;;;;4992035;28;20218;-76
2021/12/30 03:08:46;;;;;;;0.60;0.60;;;10.90;96.50;;;;;;4995570;28;20022;-76
2021/12/30 03:11:13;;;;;;;1.95;0.60;;;10.90;96.50;;;;;;4997116;28;20057;-76
2021/12/30 03:13:42;;;;;;;3.00;0.80;;;10.90;96.80;;;;;;4995313;28;20366;-77
2021/12/30 03:16:20;;;;;;;1.67;0.77;;;10.90;96.90;;;;;;4983181;28;20062;-77
2021/12/30 03:18:49;;;;;;;1.35;0.60;;;11.00;97.10;;;;;;4996110;28;20026;-77
2021/12/30 03:21:17;;;;;;;1.83;0.70;;;11.00;97.10;;;;;;5024360;28;20088;-76
2021/12/30 03:23:43;;;;;;;2.88;0.80;;;11.00;97.10;;;;;;4989749;28;20030;-77
2021/12/30 03:26:09;;;;;;;1.33;0.70;;;11.00;96.90;;;;;;4994292;28;20109;-76
2021/12/30 03:28:39;;;;;;;1.15;0.60;;;11.00;96.50;;;;;;4994587;28;20026;-77
2021/12/30 03:31:05;;;;;;;1.33;0.60;;;11.00;96.90;;;;;;4997504;28;20033;-76
2021/12/30 03:33:31;;;;;;;2.70;0.60;;;11.00;97.20;;;;;;4992606;28;20030;-76
2021/12/30 03:35:59;;;;;;;1.10;0.57;;;11.00;97.00;;;;;;4997683;28;20454;-77
2021/12/30 03:38:26;;;;;;;1.73;0.70;;;11.10;97.50;;;;;;4997892;28;20035;-76
2021/12/30 03:40:52;;;;;;;1.75;0.60;;;11.10;97.40;;;;;;4995847;28;20124;-76
2021/12/30 03:43:18;;;;;;;0.93;0.60;;;11.10;97.10;;;;;;4994129;28;20042;-76
2021/12/30 03:45:44;;;;;;;1.48;0.60;;;11.10;97.30;;;;;;4996656;28;20018;-77
2021/12/30 03:48:10;;;;;;;2.70;0.70;;;11.10;97.40;;;;;;4993216;28;20061;-77
2021/12/30 03:50:43;;;;;;;0.80;0.60;;;11.10;97.50;;;;;;5026909;28;20072;-77
2021/12/30 03:53:11;;;;;;;2.20;0.85;;;11.10;97.40;;;;;;4993897;28;20301;-76
2021/12/30 03:55:37;;;;;;;1.83;0.60;;;11.10;97.50;;;;;;4993746;28;20030;-77
2021/12/30 03:58:04;;;;;;;2.25;0.60;;;11.10;97.30;;;;;;4995950;28;20036;-76
2021/12/30 04:00:31;;;;;;;1.05;0.60;;;11.10;97.30;;;;;;4995142;28;20430;-77
2021/12/30 04:02:56;;;;;;;1.92;0.75;;;11.10;97.30;;;;;;5016837;28;20035;-76
2021/12/30 04:05:23;;;;;;;0.90;0.60;;;11.20;97.50;;;;;;5024989;28;20041;-77
2021/12/30 04:07:49;;;;;;;0.50;0.50;;;11.20;97.60;;;;;;4994161;28;20424;-77
2021/12/30 04:10:22;;;;;;;1.60;0.68;;;11.20;97.70;;;;;;5026284;28;20173;-76
2021/12/30 04:12:49;;;;;;;1.43;0.60;;;11.30;98.00;;;;;;4990506;28;20147;-77
2021/12/30 04:15:15;;;;;;;1.17;0.60;;;11.30;98.00;;;;;;4994581;28;20370;-77
2021/12/30 04:17:41;;;;;;;0.52;0.47;;;11.30;98.00;;;;;;4995597;28;20105;-77
2021/12/30 04:20:10;;;;;;;0.50;0.50;;;11.30;98.00;;;;;;5009983;28;20105;-77
2021/12/30 04:22:38;;;;;;;2.63;0.70;;;11.30;98.00;;;;;;4987586;28;20524;-76
2021/12/30 04:25:06;;;;;;;0.88;0.50;;;11.30;98.00;;;;;;4987642;28;20026;-76
2021/12/30 04:27:32;;;;;;;1.25;0.60;;;11.40;98.00;;;;;;4993305;28;20085;-76
2021/12/30 04:29:58;;;;;;;0.63;0.50;;;11.40;98.00;;;;;;4990001;28;20030;-76
2021/12/30 04:32:24;;;;;;;0.47;0.40;;;11.40;98.00;;;;;;4986189;28;20081;-76
2021/12/30 04:34:50;;;;;;;0.55;0.45;;;11.50;98.00;;;;;;4993614;28;20026;-78
2021/12/30 04:37:16;;;;;;;1.67;0.60;;;11.50;98.00;;;;;;4993874;28;20515;-77
2021/12/30 04:39:41;;;;;;;0.57;0.40;;;11.70;98.00;;;;;;4994322;28;20060;-77
2021/12/30 04:42:07;;;;;;;0.70;0.50;;;11.70;98.00;;;;;;4999027;28;20045;-77
2021/12/30 04:44:33;;;;;;;0.85;0.50;;;11.80;98.00;;;;;;5001742;28;20326;-77
2021/12/30 04:46:59;;;;;;;0.73;0.50;;;11.80;98.00;;;;;;4994913;28;20088;-77
2021/12/30 04:49:26;;;;;;;0.70;0.52;;;11.80;98.00;;;;;;4992479;28;20030;-77
2021/12/30 04:51:52;;;;;;;0.60;0.38;;;11.90;98.00;;;;;;4993060;28;20419;-77
2021/12/30 04:54:18;;;;;;;1.40;1.02;;;11.90;98.00;;;;;;4991919;28;20034;-76
2021/12/30 04:56:45;;;;;;;0.63;0.50;;;11.90;98.00;;;;;;4994568;28;20034;-76
2021/12/30 04:59:11;;;;;;;0.55;0.40;;;12.00;98.00;;;;;;4993800;28;20031;-77
2021/12/30 05:01:38;;;;;;;0.73;0.50;;;12.00;98.00;;;;;;4989358;28;20046;-77
2021/12/30 05:04:05;;;;;;;1.20;0.50;;;12.00;98.00;;;;;;4991217;28;20026;-76
2021/12/30 05:06:32;;;;;;;0.63;0.50;;;12.00;98.00;;;;;;4995880;28;20029;-77
2021/12/30 05:08:59;;;;;;;0.60;0.40;;;12.00;98.00;;;;;;4997305;28;20033;-77
2021/12/30 05:11:25;;;;;;;0.85;0.50;;;12.00;98.00;;;;;;4993220;28;20030;-76
2021/12/30 05:13:51;;;;;;;0.75;0.40;;;12.00;98.00;;;;;;4993072;28;20042;-76
2021/12/30 05:16:19;;;;;;;1.50;0.70;;;12.00;98.00;;;;;;4994708;28;20038;-76
2021/12/30 05:18:48;;;;;;;0.40;0.40;;;12.00;98.00;;;;;;4993555;28;20049;-77
2021/12/30 05:21:13;;;;;;;0.60;0.40;;;12.10;98.00;;;;;;4994715;28;20023;-76
2021/12/30 05:23:39;;;;;;;0.50;0.40;;;12.10;98.00;;;;;;4992605;28;20025;-77
2021/12/30 05:26:05;;;;;;;1.02;0.70;;;12.00;98.00;;;;;;5010562;28;20022;-77
2021/12/30 05:28:31;;;;;;;1.38;0.40;;;12.00;98.00;;;;;;4994101;28;20339;-77
2021/12/30 05:30:56;;;;;;;0.82;0.60;;;12.10;98.00;;;;;;4993292;28;20465;-77
2021/12/30 05:33:22;;;;;;;0.47;0.47;;;12.00;98.00;;;;;;4992884;28;20034;-76
2021/12/30 05:35:48;;;;;;;1.05;0.40;;;12.00;98.00;;;;;;4995046;28;20030;-76
2021/12/30 05:38:17;;;;;;;0.47;0.40;;;12.10;98.00;;;;;;4985039;28;20084;-77
2021/12/30 05:40:43;;;;;;;0.55;0.40;;;12.20;98.00;;;;;;4987339;28;20097;-76
2021/12/30 05:43:09;;;;;;;0.82;0.45;;;12.20;98.00;;;;;;4986716;28;20104;-77
2021/12/30 05:45:35;;;;;;;0.47;0.47;;;12.30;98.00;;;;;;4990303;28;20018;-76
2021/12/30 05:48:00;;;;;;;0.93;0.45;;;12.20;98.00;;;;;;4994693;28;20030;-77
2021/12/30 05:50:28;;;;;;;0.73;0.47;;;12.20;98.00;;;;;;5001203;28;20416;-76
2021/12/30 05:52:54;;;;;;;0.40;0.40;;;12.20;98.00;;;;;;4995968;28;20104;-76
2021/12/30 05:55:21;;;;;;;0.50;0.40;;;12.20;98.00;;;;;;4995164;28;20026;-77
2021/12/30 05:57:47;;;;;;;1.15;0.50;;;12.20;98.00;;;;;;4996498;28;20022;-77
2021/12/30 06:00:17;;;;;;;0.65;0.40;;;12.20;98.00;;;;;;4995519;28;20420;-77
2021/12/30 06:02:44;;;;;;;0.40;0.40;;;12.20;98.00;;;;;;4994798;28;20031;-77
2021/12/30 06:05:10;;;;;;;0.40;0.40;;;12.20;98.00;;;;;;4995961;28;20081;-77
2021/12/30 06:07:36;;;;;;;0.50;0.50;;;12.20;98.00;;;;;;4997280;28;20033;-76
2021/12/30 06:10:03;;;;;;;0.75;0.43;;;12.20;98.00;;;;;;5028518;28;20038;-76
2021/12/30 06:12:28;;;;;;;0.55;0.40;;;12.20;98.00;;;;;;4995990;28;20085;-76
2021/12/30 06:14:54;;;;;;;0.57;0.50;;;12.20;98.00;;;;;;4997241;28;20389;-76
2021/12/30 06:17:20;;;;;;;0.85;0.47;;;12.20;98.00;;;;;;5013701;28;20038;-76
2021/12/30 06:19:45;;;;;;;0.95;0.40;;;12.20;98.00;;;;;;4998015;28;20181;-76
2021/12/30 06:22:12;;;;;;;0.43;0.40;;;12.30;98.00;;;;;;4995236;28;20054;-76
2021/12/30 06:24:38;;;;;;;0.40;0.40;;;12.30;98.00;;;;;;4994619;28;20326;-76
2021/12/30 06:27:04;;;;;;;0.93;0.50;;;12.20;98.00;;;;;;4996725;28;20069;-76
2021/12/30 06:29:30;;;;;;;1.45;0.70;;;12.20;98.00;;;;;;4994623;28;20058;-76
2021/12/30 06:31:56;;;;;;;1.10;0.60;;;12.20;98.00;;;;;;4991542;28;20323;-77
2021/12/30 06:34:21;;;;;;;1.10;0.60;;;12.20;98.00;;;;;;4997046;28;20040;-77
2021/12/30 06:36:47;;;;;;;1.00;0.60;;;12.20;98.00;;;;;;4998500;28;20343;-76
2021/12/30 06:39:14;;;;;;;0.50;0.50;;;12.20;98.00;;;;;;4996740;28;20316;-77
2021/12/30 06:41:40;;;;;;;2.03;0.50;;;12.30;98.00;;;;;;4994451;28;20363;-76
2021/12/30 06:44:06;;;;;;;1.50;0.43;;;12.30;98.00;;;;;;4996748;28;20018;-76
2021/12/30 06:46:31;;;;;;;0.88;0.40;;;12.30;98.00;;;;;;4998393;28;20301;-77
2021/12/30 06:48:58;;;;;;;1.38;0.60;;;12.30;98.00;;;;;;4997324;28;20356;-76
2021/12/30 06:51:26;;;;;;;0.47;0.47;;;12.30;98.00;;;;;;4998264;28;20323;-76
2021/12/30 06:53:54;;;;;;;1.48;0.60;;;12.30;98.00;;;;;;4997161;28;20034;-76
2021/12/30 06:56:21;;;;;;;0.60;0.50;;;12.20;98.00;;;;;;4997591;28;20029;-76
2021/12/30 06:58:46;;;;;;;0.50;0.50;;;12.20;98.00;;;;;;4997406;28;20105;-77
2021/12/30 07:01:12;;;;;;;0.88;0.50;;;12.20;98.00;;;;;;4997156;28;20101;-77
2021/12/30 07:03:38;;;;;;;0.50;0.50;;;12.10;98.00;;;;;;4997939;28;20030;-77
2021/12/30 07:06:04;;;;;;;2.25;0.80;;;12.20;98.00;;;;;;4997695;28;20072;-76
2021/12/30 07:08:29;;;;;;;1.50;0.65;;;12.20;98.00;;;;;;4996115;28;20121;-77
2021/12/30 07:10:55;;;;;;;0.65;0.55;;;12.20;98.00;;;;;;4998216;28;20030;-77
2021/12/30 07:13:21;;;;;;;2.88;1.10;;;12.10;98.00;;;;;;4996963;28;20038;-77
2021/12/30 07:15:46;;;;;;;2.63;1.20;;;12.10;98.00;;;;;;4997329;28;20076;-76
2021/12/30 07:18:12;;;;;;;2.17;0.88;;;12.10;98.00;;;;;;4997406;28;20458;-76
2021/12/30 07:20:38;;;;;;;1.40;0.63;;;12.00;98.00;;;;;;4996828;28;20030;-76
2021/12/30 07:23:03;;;;;;;2.00;0.80;;;12.10;98.00;;;;;;4996802;28;20030;-76
2021/12/30 07:25:29;;;;;;;1.50;0.90;;;12.10;98.00;;;;;;4998257;28;20022;-76
2021/12/30 07:27:55;;;;;;;2.63;1.08;;;12.10;98.00;;;;;;4998273;28;20022;-77
2021/12/30 07:30:23;;;;;;;1.08;0.68;;;12.20;98.00;;;;;;4997471;28;20026;-78
2021/12/30 07:32:48;;;;;;;0.95;0.57;;;12.30;98.00;;;;;;4997280;28;20085;-77
2021/12/30 07:35:16;;;;;;;0.50;0.50;;;12.40;98.00;;;;;;4997989;28;20042;-78
2021/12/30 07:37:42;;;;;;;0.55;0.55;;;12.40;98.00;;;;;;4995563;28;20057;-77
2021/12/30 07:40:09;;;;;;;2.20;1.13;;;12.40;98.00;;;;;;4997192;28;20070;-77
2021/12/30 07:42:35;;;;;;;1.70;0.88;;;12.30;98.00;;;;;;4997031;28;20395;-77
2021/12/30 07:45:01;;;;;;;1.27;0.50;;;12.30;98.00;;;;;;4997748;28;20042;-77
2021/12/30 07:47:26;;;;;;;0.50;0.40;;;12.20;98.00;;;;;;4997531;28;20120;-77
2021/12/30 07:49:52;;;;;;;0.55;0.50;;;12.20;98.00;;;;;;4997484;28;20029;-76
2021/12/30 07:52:18;;;;;;;0.63;0.50;;;12.30;98.00;;;;;;4996381;28;20030;-77
2021/12/30 07:54:44;;;;;;;1.38;0.50;;;12.40;98.00;;;;;;4997205;28;20037;-77
2021/12/30 07:57:11;;;;;;;0.73;0.60;;;12.40;98.00;;;;;;4988250;28;20704;-77
2021/12/30 07:59:37;;;;;;;1.38;0.60;;;12.40;98.00;;;;;;4997539;28;20496;-77
2021/12/30 08:02:03;;;;;;;1.00;0.70;;;12.40;98.00;;;;;;4993398;28;20034;-77
2021/12/30 08:04:29;;;;;;;1.60;0.70;;;12.50;98.00;;;;;;4997160;28;20018;-77
2021/12/30 08:06:56;;;;;;;1.55;0.90;;;12.50;98.00;;;;;;4997073;28;20030;-77
2021/12/30 08:09:21;;;;;;;0.73;0.50;;;12.50;98.00;;;;;;4995299;28;20030;-76
2021/12/30 08:11:47;;;;;;;1.35;0.70;;;12.50;98.00;;;;;;4994749;28;20109;-76
2021/12/30 08:14:13;;;;;;;2.17;0.60;;;12.50;98.00;;;;;;4995224;28;20113;-77
2021/12/30 08:16:38;;;;;;;1.55;0.77;;;12.50;98.00;;;;;;4994972;28;20096;-76
2021/12/30 08:19:04;;;;;;;1.25;0.60;;;12.50;98.00;;;;;;4991881;28;20091;-77
2021/12/30 08:21:33;;;;;;;0.95;0.57;;;12.60;98.00;;;;;;4985462;28;20074;-76
2021/12/30 08:23:58;;;;;;;0.63;0.52;;;12.60;98.00;;;;;;4994134;28;20014;-77
2021/12/30 08:26:25;;;;;;;0.80;0.50;;;12.50;98.00;;;;;;4995455;28;20097;-77
2021/12/30 08:28:51;;;;;;;0.82;0.50;;;12.50;98.00;;;;;;4994714;28;20050;-76
2021/12/30 08:31:16;;;;;;;1.08;0.60;;;12.50;98.00;;;;;;5010561;28;20064;-76
2021/12/30 08:33:42;;;;;;;1.65;0.70;;;12.60;98.00;;;;;;4995020;28;20030;-76
2021/12/30 08:36:08;;;;;;;2.08;0.80;;;12.60;98.00;;;;;;4994980;28;20022;-76
2021/12/30 08:38:34;;;;;;;0.63;0.50;;;12.60;98.00;;;;;;4992928;28;20038;-76
2021/12/30 08:41:00;;;;;;;0.90;0.60;;;12.60;98.00;;;;;;4994925;28;20042;-76
2021/12/30 08:43:26;;;;;;;0.45;0.45;;;12.70;98.00;;;;;;4995161;28;20026;-77
2021/12/30 08:45:52;;;;;;;0.70;0.50;;;12.70;98.00;;;;;;4993924;28;20022;-76
2021/12/30 08:48:19;;;;;;;0.70;0.60;;;12.70;98.00;;;;;;4994812;28;20030;-77
2021/12/30 08:50:46;;;;;;;1.05;0.60;;;12.70;98.00;;;;;;4994898;28;20023;-76
2021/12/30 08:53:13;;;;;;;0.57;0.50;;;12.70;98.00;;;;;;4992811;28;20141;-77
2021/12/30 08:55:39;;;;;;;1.50;0.70;;;12.70;98.00;;;;;;4994212;28;20022;-76
2021/12/30 08:58:05;;;;;;;0.65;0.57;;;12.70;98.00;;;;;;4993995;28;20022;-77
2021/12/30 09:00:36;;;;;;;0.90;0.68;;;12.70;98.00;;;;;;4995123;28;20439;-77
2021/12/30 09:03:04;;;;;;;0.80;0.50;;;12.70;98.00;;;;;;4994732;28;20038;-76
2021/12/30 09:05:31;;;;;;;0.40;0.40;;;12.70;98.00;;;;;;4994728;28;20019;-77
2021/12/30 09:07:57;;;;;;;0.40;0.40;;;12.70;98.00;;;;;;4993960;28;20022;-77
2021/12/30 09:10:23;;;;;;;1.95;0.70;;;12.80;98.00;;;;;;5013354;28;20030;-76
2021/12/30 09:12:52;;;;;;;0.65;0.50;;;12.80;98.00;;;;;;4994020;28;20126;-77
2021/12/30 09:15:21;;;;;;;1.20;0.80;;;12.70;98.00;;;;;;4993637;28;20022;-76
2021/12/30 09:17:47;;;;;;;1.33;0.60;;;12.70;98.00;;;;;;5010501;28;20022;-76
2021/12/30 09:20:14;;;;;;;0.65;0.50;;;12.80;98.00;;;;;;4995340;28;20037;-76
2021/12/30 09:22:41;;;;;;;0.80;0.57;;;12.90;98.00;;;;;;4997925;28;20022;-76
2021/12/30 09:25:08;;;;;;;1.13;0.65;;;12.90;98.00;;;;;;5000558;28;20029;-76
2021/12/30 09:27:35;;;;;;;0.70;0.60;;;13.00;98.00;;;;;;5000998;28;20026;-76
2021/12/30 09:30:03;;;;;;;1.63;0.60;;;13.00;98.00;;;;;;5002301;28;20137;-76
2021/12/30 09:32:29;;;;;;;0.98;0.60;;;13.10;98.00;;;;;;5003083;28;20030;-76
2021/12/30 09:34:55;;;;;;;2.70;0.60;;;13.20;98.00;;;;;;5000768;28;20038;-76
2021/12/30 09:37:20;;;;;;;2.25;0.70;;;13.30;98.00;;;;;;5004705;28;20328;-76
2021/12/30 09:39:46;;;;;;;2.15;1.13;;;13.30;98.00;;;;;;5001879;28;20462;-77
2021/12/30 09:42:13;;;;;;;0.93;0.65;;;13.30;98.00;;;;;;5002202;28;20097;-76
2021/12/30 09:44:39;;;;;;;0.93;0.60;;;13.40;98.00;;;;;;5002620;28;20386;-76
2021/12/30 09:47:05;;;;;;;1.13;0.60;;;13.30;98.00;;;;;;5002807;28;20384;-77
2021/12/30 09:49:31;;;;;;;1.17;0.70;;;13.30;98.00;;;;;;5001668;28;20065;-77
2021/12/30 09:51:57;;;;;;;1.65;0.60;;;13.30;98.00;;;;;;5002506;28;20335;-77
2021/12/30 09:54:23;;;;;;;2.60;1.27;;;13.30;98.00;;;;;;5001128;28;20054;-76
2021/12/30 09:56:50;;;;;;;1.10;0.60;;;13.50;98.00;;;;;;5002031;28;20034;-77
2021/12/30 09:59:16;;;;;;;1.13;0.70;;;13.50;98.00;;;;;;5001455;28;20052;-77
2021/12/30 10:01:42;;;;;;;1.27;0.88;;;13.50;98.00;;;;;;5001946;28;20030;-77
2021/12/30 10:04:10;;;;;;;2.45;1.25;;;13.60;98.00;;;;;;5001956;28;20029;-77
2021/12/30 10:06:48;;;;;;;2.35;0.60;;;13.60;98.00;;;;;;5002491;28;20030;-77
2021/12/30 10:09:16;;;;;;;2.10;1.15;;;13.70;98.00;;;;;;5000088;28;20031;-76
2021/12/30 10:11:51;;;;;;;1.23;0.60;;;13.80;98.00;;;;;;5001655;28;20022;-77
2021/12/30 10:14:33;;;;;;;2.00;0.60;;;13.80;98.00;;;;;;5002155;28;20022;-76
2021/12/30 10:17:17;;;;;;;1.00;0.70;;;13.80;98.00;;;;;;5002072;28;20106;-77
2021/12/30 10:19:44;;;;;;;1.00;0.73;;;13.90;98.00;;;;;;5000900;28;20038;-76
2021/12/30 10:22:12;;;;;;;1.38;0.80;;;14.10;98.00;;;;;;5002324;28;20062;-76
2021/12/30 10:24:38;;;;;;;0.85;0.50;;;14.10;98.00;;;;;;5001279;28;20050;-78
2021/12/30 10:27:05;;;;;;;1.02;0.60;;;14.00;98.00;;;;;;5001953;28;20026;-78
2021/12/30 10:29:44;;;;;;;3.42;1.30;;;14.10;98.00;;;;;;5001703;28;20109;-77
2021/12/30 10:32:18;;;;;;;4.10;1.00;;;14.20;98.00;;;;;;5000476;28;20041;-77
2021/12/30 10:35:02;;;;;;;0.52;0.43;;;14.10;98.00;;;;;;4997341;28;20022;-77
2021/12/30 10:37:28;;;;;;;5.57;2.90;;;13.90;98.00;;;;;;4997462;28;20117;-77
2021/12/30 10:39:54;;;;;;;1.63;0.93;;;13.90;98.00;;;;;;4996037;28;20418;-77
2021/12/30 10:42:21;;;;;;;1.67;0.90;;;13.90;98.00;;;;;;4997315;28;20092;-77
2021/12/30 10:45:04;;;;;;;0.75;0.50;;;13.90;98.00;;;;;;4998322;28;20318;-77
2021/12/30 10:47:33;;;;;;;3.53;0.70;;;13.90;98.00;;;;;;4997012;28;20045;-77
2021/12/30 10:50:01;;;;;;;2.45;1.27;;;13.90;98.00;;;;;;4997267;28;20027;-77
2021/12/30 10:52:28;;;;;;;3.90;1.23;;;13.90;98.00;;;;;;4997513;28;20034;-77
2021/12/30 10:54:54;;;;;;;4.35;1.40;;;13.90;98.00;;;;;;4997256;28;20027;-76
2021/12/30 10:57:26;;;;;;;3.45;1.55;;;13.90;98.00;;;;;;4997957;28;20109;-76
2021/12/30 10:59:52;;;;;;;2.90;1.50;;;13.90;98.00;;;;;;4997566;28;20034;-76
2021/12/30 11:02:21;;;;;;;4.35;1.80;;;13.90;98.00;;;;;;4998246;28;20489;-77
2021/12/30 11:04:53;;;;;;;1.05;0.70;;;13.70;98.00;;;;;;4993690;28;20029;-77
2021/12/30 11:07:21;;;;;;;1.60;0.88;;;13.70;98.00;;;;;;4996673;28;20105;-77
2021/12/30 11:09:53;;;;;;;1.50;0.80;;;13.70;98.00;;;;;;4997176;28;20026;-77
2021/12/30 11:12:34;;;;;;;1.25;0.75;;;13.60;98.00;;;;;;4994483;28;20109;-76
2021/12/30 11:15:16;;;;;;;2.10;0.90;;;13.60;98.00;;;;;;4993647;28;20030;-77
2021/12/30 11:17:42;;;;;;;1.75;0.80;;;13.50;98.00;;;;;;4996007;28;20482;-76
2021/12/30 11:20:10;;;;;;;2.63;0.88;;;13.60;98.00;;;;;;4997862;28;20034;-76
2021/12/30 11:22:38;;;;;;;3.00;1.00;;;13.60;98.00;;;;;;4994903;28;20025;-77
2021/12/30 11:25:07;;;;;;;2.88;0.90;;;13.70;98.00;;;;;;4996926;28;20022;-77
2021/12/30 11:27:33;;;;;;;5.35;1.70;;;13.60;98.00;;;;;;4994885;28;20030;-76
2021/12/30 11:30:04;;;;;;;5.07;1.80;;;13.60;98.00;;;;;;4997127;28;20037;-77
2021/12/30 11:32:33;;;;;;;4.78;1.60;;;13.80;98.00;;;;;;4994799;28;20026;-76
2021/12/30 11:34:59;;;;;;;3.65;1.30;;;14.00;98.00;;;;;;4996970;28;20038;-77
2021/12/30 11:37:25;;;;;;;2.90;1.13;;;14.30;98.00;;;;;;4988739;28;20045;-76
2021/12/30 11:39:54;;;;;;;2.58;1.00;;;14.40;98.00;;;;;;5004065;28;20112;-76
2021/12/30 11:42:37;;;;;;;4.25;1.48;;;14.40;98.00;;;;;;4994837;28;20371;-76
2021/12/30 11:45:30;;;;;;;2.37;1.00;;;14.40;98.00;;;;;;4997058;28;20468;-77
2021/12/30 11:48:00;;;;;;;1.67;0.90;;;14.30;98.00;;;;;;4993850;28;20034;-76
2021/12/30 11:50:36;;;;;;;2.28;0.93;;;14.30;98.00;;;;;;5000404;28;20122;-77
2021/12/30 11:53:08;;;;;;;1.85;0.95;;;14.30;98.00;;;;;;5004837;28;20469;-76
2021/12/30 11:55:47;;;;;;;3.13;1.38;;;14.50;98.00;;;;;;4996922;28;20038;-76
2021/12/30 11:58:34;;;;;;;1.55;0.77;;;14.50;98.00;;;;;;4995954;28;20317;-77
2021/12/30 12:01:14;;;;;;;2.30;1.30;;;14.60;98.00;;;;;;4991916;28;20030;-77
2021/12/30 12:03:53;;;;;;;2.85;1.40;;;14.70;98.00;;;;;;5013260;28;20026;-77
2021/12/30 12:06:24;;;;;;;1.02;0.70;;;14.50;98.00;;;;;;4995078;28;20025;-76
2021/12/30 12:08:53;;;;;;;1.42;0.70;;;14.50;98.00;;;;;;5004980;28;20026;-76
2021/12/30 12:11:24;;;;;;;1.83;0.73;;;14.40;98.00;;;;;;5034969;28;20415;-76
2021/12/30 12:13:53;;;;;;;1.95;0.90;;;14.30;98.00;;;;;;4996874;28;20113;-76
2021/12/30 12:16:47;;;;;;;2.63;1.10;;;14.30;98.00;;;;;;4996125;28;20026;-76
2021/12/30 12:19:15;;;;;;;3.03;1.00;;;14.40;98.00;;;;;;4996117;28;20048;-76
2021/12/30 12:21:46;;;;;;;2.17;1.00;;;14.70;98.00;;;;;;4995805;28;20495;-76
2021/12/30 12:24:21;;;;;;;2.17;1.00;;;14.70;98.00;;;;;;4994809;28;20018;-76
2021/12/30 12:26:54;;;;;;;3.95;1.88;;;14.80;98.00;;;;;;4995649;28;20487;-76
2021/12/30 12:29:25;;;;;;;3.38;1.40;;;14.80;98.00;;;;;;4995306;28;20064;-77
2021/12/30 12:32:10;;;;;;;2.35;1.05;;;14.80;98.00;;;;;;4995062;28;20030;-77
2021/12/30 12:34:38;;;;;;;2.17;1.00;;;14.70;98.00;;;;;;4993883;28;20025;-77
2021/12/30 12:37:24;;;;;;;2.60;1.00;;;14.50;98.00;;;;;;4994539;28;20474;-77
2021/12/30 12:40:13;;;;;;;1.85;0.95;;;14.60;98.00;;;;;;4994666;28;20053;-77
2021/12/30 12:42:48;;;;;;;2.30;1.00;;;15.00;98.00;;;;;;4995124;28;20060;-76
2021/12/30 12:45:19;;;;;;;2.15;0.98;;;15.10;98.00;;;;;;4988571;28;20109;-76
2021/12/30 12:47:46;;;;;;;3.42;1.20;;;15.40;98.00;;;;;;4997513;28;20027;-76
2021/12/30 12:50:13;;;;;;;2.50;0.90;;;15.70;97.00;;;;;;4996115;28;20034;-76
2021/12/30 12:52:44;;;;;;;2.95;1.10;;;15.80;96.50;;;;;;4994263;28;20348;-76